createdAt,value
2022-08-19T00:01:16.538Z,61.73
2022-08-19T00:04:19.139Z,62.04
2022-08-19T00:06:49.894Z,61.95
2022-08-19T00:09:58.193Z,62.25
2022-08-19T00:12:38.322Z,62.30
2022-08-19T00:15:55.300Z,62.71
2022-08-19T00:18:35.366Z,62.69
2022-08-19T00:21:27.192Z,63.03
2022-08-19T00:24:09.678Z,63.11
2022-08-19T00:27:26.365Z,63.46
2022-08-19T00:29:57.246Z,63.79
2022-08-19T00:33:05.362Z,64.17
2022-08-19T00:36:07.611Z,64.29
2022-08-19T00:39:16.396Z,64.61
2022-08-19T00:42:25.521Z,64.76
2022-08-19T00:45:36.731Z,64.90
2022-08-19T00:48:18.266Z,65.20
2022-08-19T00:51:06.835Z,65.36
2022-08-19T00:54:15.798Z,65.33
2022-08-19T00:57:27.061Z,65.63
2022-08-19T01:00:18.321Z,65.60
2022-08-19T01:03:10.700Z,65.60
2022-08-19T01:06:20.621Z,65.88
2022-08-19T01:09:09.538Z,66.02
2022-08-19T01:12:17.989Z,66.00
2022-08-19T01:15:28.034Z,66.41
2022-08-19T01:18:38.194Z,66.66
2022-08-19T01:21:50.970Z,66.67
2022-08-19T01:24:59.396Z,66.72
2022-08-19T01:28:10.804Z,66.83
2022-08-19T01:31:07.914Z,66.95
2022-08-19T01:34:16.518Z,66.90
2022-08-19T01:37:27.148Z,67.19
2022-08-19T01:40:01.077Z,67.30
2022-08-19T01:42:53.025Z,67.27
2022-08-19T01:46:01.720Z,67.40
2022-08-19T01:49:00.937Z,67.58
2022-08-19T01:51:58.612Z,67.89
2022-08-19T01:54:40.249Z,67.91
2022-08-19T01:57:50.575Z,67.97
2022-08-19T02:00:41.791Z,67.94
2022-08-19T02:03:29.404Z,68.07
2022-08-19T02:06:26.742Z,68.12
2022-08-19T02:09:18.107Z,68.00
2022-08-19T02:12:15.427Z,68.20
2022-08-19T02:15:06.536Z,68.08
2022-08-19T02:17:57.267Z,67.89
2022-08-19T02:21:05.934Z,68.03
2022-08-19T02:24:03.639Z,68.05
2022-08-19T02:26:52.177Z,67.94
2022-08-19T02:29:40.153Z,67.96
2022-08-19T02:32:44.681Z,67.93
2022-08-19T02:35:36.056Z,68.14
2022-08-19T02:38:28.791Z,68.27
2022-08-19T02:41:14.219Z,68.40
2022-08-19T02:44:30.313Z,68.76
2022-08-19T02:47:39.768Z,68.87
2022-08-19T02:50:51.933Z,69.09
2022-08-19T02:53:55.091Z,69.21
2022-08-19T02:56:56.359Z,69.24
2022-08-19T02:59:45.264Z,69.16
2022-08-19T03:02:53.938Z,69.33
2022-08-19T03:05:56.176Z,69.47
2022-08-19T03:08:38.389Z,69.62
2022-08-19T03:11:46.736Z,69.79
2022-08-19T03:14:57.197Z,69.81
2022-08-19T03:18:05.256Z,69.89
2022-08-19T03:20:56.742Z,69.98
2022-08-19T03:23:54.679Z,70.14
2022-08-19T03:26:58.204Z,70.25
2022-08-19T03:29:49.162Z,70.49
2022-08-19T03:32:57.767Z,70.54
2022-08-19T03:35:59.890Z,70.83
2022-08-19T03:39:02.054Z,70.91
2022-08-19T03:42:38.423Z,70.66
2022-08-19T03:45:38.507Z,70.70
2022-08-19T03:48:26.674Z,70.88
2022-08-19T03:51:31.382Z,70.97
2022-08-19T03:54:23.775Z,71.20
2022-08-19T03:57:13.659Z,71.49
2022-08-19T04:00:22.134Z,71.73
2022-08-19T04:03:29.771Z,71.70
2022-08-19T04:06:17.913Z,71.75
2022-08-19T04:09:28.093Z,71.63
2022-08-19T04:12:37.272Z,71.84
2022-08-19T04:15:26.222Z,71.94
2022-08-19T04:18:36.469Z,72.01
2022-08-19T04:21:26.008Z,72.24
2022-08-19T04:25:10.446Z,72.38
2022-08-19T04:28:18.605Z,72.35
2022-08-19T04:31:22.004Z,72.28
2022-08-19T04:34:30.468Z,72.45
2022-08-19T04:37:40.684Z,72.27
2022-08-19T04:41:00.518Z,72.68
2022-08-19T04:44:08.832Z,72.76
2022-08-19T04:47:15.238Z,72.75
2022-08-19T04:54:14.680Z,72.98
2022-08-19T04:57:27.569Z,73.04
2022-08-19T05:01:02.677Z,73.04
2022-08-19T05:04:10.739Z,73.08
2022-08-19T05:07:17.183Z,73.08
2022-08-19T05:11:03.598Z,73.00
2022-08-19T05:14:20.175Z,73.04
2022-08-19T05:17:34.927Z,72.92
2022-08-19T05:21:04.005Z,72.78
2022-08-19T05:23:51.860Z,72.66
2022-08-19T05:27:18.333Z,72.76
2022-08-19T05:30:46.055Z,72.65
2022-08-19T05:33:54.828Z,72.60
2022-08-19T05:40:51.143Z,72.87
2022-08-19T05:43:59.422Z,72.98
2022-08-19T05:46:56.604Z,73.15
2022-08-19T05:49:48.121Z,73.18
2022-08-19T05:52:56.558Z,73.25
2022-08-19T05:56:05.814Z,73.33
2022-08-19T05:59:14.789Z,73.49
2022-08-19T06:02:20.482Z,73.42
2022-08-19T06:05:27.679Z,73.42
2022-08-19T06:08:36.742Z,73.30
2022-08-19T06:11:26.030Z,73.39
2022-08-19T06:14:27.886Z,73.40
2022-08-19T06:17:13.532Z,73.42
2022-08-19T06:20:05.605Z,73.43
2022-08-19T06:23:03.499Z,73.48
2022-08-19T06:26:16.211Z,73.30
2022-08-19T06:29:25.307Z,73.19
2022-08-19T06:32:21.955Z,73.06
2022-08-19T06:35:30.806Z,73.19
2022-08-19T06:38:32.896Z,73.14
2022-08-19T06:41:48.782Z,73.25
2022-08-19T06:44:43.664Z,73.31
2022-08-19T06:47:57.100Z,73.36
2022-08-19T06:51:06.362Z,73.18
2022-08-19T06:54:00.175Z,73.09
2022-08-19T06:57:09.757Z,72.79
2022-08-19T07:00:00.943Z,72.55
2022-08-19T07:03:09.540Z,72.31
2022-08-19T07:06:09.893Z,72.08
2022-08-19T07:09:22.418Z,71.88
2022-08-19T07:12:31.792Z,71.52
2022-08-19T07:15:13.894Z,70.97
2022-08-19T07:17:59.275Z,70.74
2022-08-19T07:20:53.964Z,69.80
2022-08-19T07:23:42.331Z,69.47
2022-08-19T07:26:34.365Z,68.80
2022-08-19T07:29:42.724Z,68.41
2022-08-19T07:32:36.280Z,67.64
2022-08-19T07:35:08.107Z,66.40
2022-08-19T07:37:46.696Z,65.88
2022-08-19T07:40:34.995Z,65.69
2022-08-19T07:43:10.200Z,65.15
2022-08-19T07:45:51.889Z,63.82
2022-08-19T07:48:29.269Z,62.75
2022-08-19T07:51:00.059Z,61.78
2022-08-19T07:53:30.845Z,60.70
2022-08-19T07:56:04.648Z,59.13
2022-08-19T07:58:33.791Z,58.31
2022-08-19T08:01:01.996Z,56.29
2022-08-19T08:03:44.639Z,55.76
2022-08-19T08:06:31.167Z,54.44
2022-08-19T08:09:19.310Z,52.20
2022-08-19T08:11:49.354Z,50.94
2022-08-19T08:14:29.010Z,50.01
2022-08-19T08:17:02.611Z,48.77
2022-08-19T08:19:39.366Z,47.09
2022-08-19T08:22:06.908Z,46.66
2022-08-19T08:24:36.402Z,46.99
2022-08-19T08:27:11.067Z,45.75
2022-08-19T08:29:40.874Z,44.57
2022-08-19T08:32:14.276Z,43.52
2022-08-19T08:34:42.919Z,44.03
2022-08-19T08:37:10.479Z,42.48
2022-08-19T08:39:38.070Z,42.36
2022-08-19T08:42:17.630Z,41.23
2022-08-19T08:44:51.580Z,40.76
2022-08-19T08:47:23.360Z,40.35
2022-08-19T08:49:53.600Z,40.31
2022-08-19T08:52:23.429Z,40.08
2022-08-19T08:54:57.003Z,40.03
2022-08-19T08:57:37.733Z,40.59
2022-08-19T09:00:15.605Z,40.24
2022-08-19T09:02:43.797Z,39.86
2022-08-19T09:05:16.730Z,39.68
2022-08-19T09:07:51.190Z,39.58
2022-08-19T09:10:25.992Z,39.44
2022-08-19T09:13:03.682Z,40.03
2022-08-19T09:15:48.690Z,38.88
2022-08-19T09:18:19.196Z,37.38
2022-08-19T09:20:48.356Z,36.56
2022-08-19T09:23:16.401Z,35.92
2022-08-19T09:25:44.369Z,34.96
2022-08-19T09:28:15.207Z,34.51
2022-08-19T09:30:54.564Z,33.34
2022-08-19T09:33:23.097Z,32.54
2022-08-19T09:35:53.230Z,31.89
2022-08-19T09:38:24.800Z,32.10
2022-08-19T09:40:52.438Z,31.40
2022-08-19T09:43:33.299Z,29.41
2022-08-19T09:46:11.699Z,30.07
2022-08-19T09:48:40.296Z,29.78
2022-08-19T09:51:11.851Z,31.38
2022-08-19T09:53:43.460Z,33.44
2022-08-19T09:56:11.337Z,35.30
2022-08-19T09:58:40.199Z,36.86
2022-08-19T10:01:10.195Z,38.25
2022-08-19T10:03:38.068Z,39.52
2022-08-19T10:06:15.094Z,40.80
2022-08-19T10:08:50.026Z,42.08
2022-08-19T10:11:28.509Z,43.00
2022-08-19T10:14:08.049Z,44.31
2022-08-19T10:16:42.482Z,44.94
2022-08-19T10:19:25.900Z,45.70
2022-08-19T10:22:16.302Z,46.22
2022-08-19T10:24:53.294Z,47.08
2022-08-19T10:27:33.270Z,47.77
2022-08-19T10:30:05.258Z,48.56
2022-08-19T10:32:55.322Z,49.25
2022-08-19T10:35:30.036Z,49.74
2022-08-19T10:38:01.826Z,49.81
2022-08-19T10:40:37.760Z,49.37
2022-08-19T10:43:13.131Z,48.35
2022-08-19T10:45:52.281Z,48.12
2022-08-19T10:48:36.322Z,48.09
2022-08-19T10:51:25.181Z,47.58
2022-08-19T10:54:33.114Z,47.59
2022-08-19T10:57:52.213Z,47.87
2022-08-19T11:00:23.809Z,47.91
2022-08-19T11:02:55.949Z,47.82
2022-08-19T11:05:24.489Z,48.08
2022-08-19T11:07:52.961Z,47.74
2022-08-19T11:10:24.298Z,47.50
2022-08-19T11:12:54.730Z,46.34
2022-08-19T11:15:41.563Z,43.30
2022-08-19T11:18:16.620Z,40.70
2022-08-19T11:20:45.510Z,37.17
2022-08-19T11:23:19.382Z,34.21
2022-08-19T11:25:50.302Z,32.22
2022-08-19T11:28:18.153Z,30.43
2022-08-19T11:30:45.816Z,29.88
2022-08-19T11:33:13.589Z,27.91
2022-08-19T11:35:41.736Z,27.41
2022-08-19T11:38:09.937Z,26.39
2022-08-19T11:40:38.139Z,25.86
2022-08-19T11:43:06.701Z,24.94
2022-08-19T11:45:35.177Z,26.25
2022-08-19T11:48:10.320Z,26.45
2022-08-19T11:50:41.970Z,27.33
2022-08-19T11:53:14.967Z,28.15
2022-08-19T11:55:44.275Z,27.31
2022-08-19T11:58:18.831Z,25.77
2022-08-19T12:00:49.501Z,26.43
2022-08-19T12:03:19.701Z,27.69
2022-08-19T12:05:47.990Z,28.52
2022-08-19T12:08:15.772Z,30.02
2022-08-19T12:10:46.807Z,30.85
2022-08-19T12:13:19.168Z,29.21
2022-08-19T12:15:52.972Z,27.36
2022-08-19T12:18:25.170Z,26.25
2022-08-19T12:20:55.032Z,26.03
2022-08-19T12:23:22.936Z,26.43
2022-08-19T12:25:52.121Z,28.15
2022-08-19T12:28:21.074Z,29.50
2022-08-19T12:30:49.298Z,30.65
2022-08-19T12:33:16.931Z,31.41
2022-08-19T12:35:47.251Z,33.07
2022-08-19T12:38:15.434Z,34.38
2022-08-19T12:40:46.223Z,35.49
2022-08-19T12:43:16.153Z,35.29
2022-08-19T12:45:50.031Z,35.91
2022-08-19T12:48:34.714Z,36.21
2022-08-19T12:51:07.090Z,36.65
2022-08-19T12:53:34.932Z,37.20
2022-08-19T12:56:15.364Z,37.54
2022-08-19T12:58:48.861Z,38.27
2022-08-19T13:01:22.694Z,38.99
2022-08-19T13:04:00.003Z,39.12
2022-08-19T13:06:31.052Z,39.60
2022-08-19T13:09:09.494Z,39.98
2022-08-19T13:11:37.916Z,39.74
2022-08-19T13:14:12.771Z,39.79
2022-08-19T13:16:48.768Z,40.02
2022-08-19T13:19:21.498Z,40.32
2022-08-19T13:21:57.730Z,40.48
2022-08-19T13:24:33.835Z,40.18
2022-08-19T13:27:01.911Z,39.98
2022-08-19T13:29:53.163Z,39.04
2022-08-19T13:32:49.166Z,36.84
2022-08-19T13:35:20.311Z,36.42
2022-08-19T13:37:50.831Z,36.48
2022-08-19T13:40:20.498Z,36.24
2022-08-19T13:42:49.366Z,36.03
2022-08-19T13:45:22.736Z,34.19
2022-08-19T13:47:54.719Z,33.35
2022-08-19T13:50:28.128Z,32.33
2022-08-19T13:52:57.364Z,32.06
2022-08-19T13:55:25.639Z,32.48
2022-08-19T13:57:53.924Z,33.33
2022-08-19T14:00:22.755Z,32.92
2022-08-19T14:02:52.250Z,32.79
2022-08-19T14:05:20.294Z,33.05
2022-08-19T14:07:48.639Z,33.06
2022-08-19T14:10:16.938Z,31.78
2022-08-19T14:12:46.802Z,32.40
2022-08-19T14:15:15.637Z,33.30
2022-08-19T14:17:44.652Z,34.13
2022-08-19T14:20:18.594Z,34.11
2022-08-19T14:22:49.380Z,34.11
2022-08-19T14:25:18.789Z,33.89
2022-08-19T14:27:47.117Z,34.84
2022-08-19T14:30:17.099Z,35.48
2022-08-19T14:32:45.359Z,36.39
2022-08-19T14:35:14.802Z,37.41
2022-08-19T14:37:46.338Z,38.30
2022-08-19T14:40:15.935Z,40.04
2022-08-19T14:42:43.938Z,43.11
2022-08-19T14:45:12.534Z,44.44
2022-08-19T14:47:40.861Z,45.22
2022-08-19T14:50:10.595Z,45.87
2022-08-19T14:52:45.855Z,46.55
2022-08-19T14:55:13.503Z,47.76
2022-08-19T14:57:50.843Z,49.44
2022-08-19T15:00:30.495Z,50.66
2022-08-19T15:02:59.450Z,51.47
2022-08-19T15:05:45.801Z,51.78
2022-08-19T15:08:19.594Z,51.88
2022-08-19T15:10:48.289Z,51.88
2022-08-19T15:13:16.304Z,51.26
2022-08-19T15:15:44.024Z,50.88
2022-08-19T15:18:14.498Z,50.88
2022-08-19T15:20:46.693Z,50.68
2022-08-19T15:23:15.399Z,50.51
2022-08-19T15:25:46.482Z,50.35
2022-08-19T15:28:16.929Z,49.81
2022-08-19T15:30:47.438Z,49.74
2022-08-19T15:33:20.056Z,49.23
2022-08-19T15:35:50.382Z,48.84
2022-08-19T15:38:21.790Z,48.32
2022-08-19T15:40:50.401Z,48.32
2022-08-19T15:43:18.396Z,48.51
2022-08-19T15:45:49.252Z,47.91
2022-08-19T15:48:20.436Z,48.02
2022-08-19T15:50:48.232Z,47.94
2022-08-19T15:53:16.143Z,47.90
2022-08-19T15:55:48.048Z,48.13
2022-08-19T15:58:33.837Z,48.35
2022-08-19T16:01:42.179Z,48.48
2022-08-19T16:04:31.563Z,47.74
2022-08-19T16:07:03.427Z,48.10
2022-08-19T16:09:34.193Z,47.64
2022-08-19T16:12:13.556Z,47.84
2022-08-19T16:14:43.349Z,48.43
2022-08-19T16:17:13.704Z,48.53
2022-08-19T16:19:50.787Z,48.77
2022-08-19T16:22:21.736Z,48.94
2022-08-19T16:24:51.627Z,48.75
2022-08-19T16:27:25.026Z,48.55
2022-08-19T16:29:52.837Z,48.47
2022-08-19T16:32:27.995Z,48.66
2022-08-19T16:34:58.166Z,48.40
2022-08-19T16:37:25.970Z,48.04
2022-08-19T16:39:58.944Z,48.07
2022-08-19T16:42:30.922Z,48.42
2022-08-19T16:45:08.876Z,48.09
2022-08-19T16:47:36.703Z,47.89
2022-08-19T16:50:07.743Z,48.16
2022-08-19T16:52:35.809Z,47.94
2022-08-19T16:55:10.799Z,48.01
2022-08-19T16:57:50.075Z,48.32
2022-08-19T17:00:20.974Z,48.23
2022-08-19T17:02:51.462Z,48.56
2022-08-19T17:05:20.606Z,48.53
2022-08-19T17:07:52.846Z,48.44
2022-08-19T17:10:24.014Z,48.38
2022-08-19T17:12:55.463Z,48.52
2022-08-19T17:15:26.719Z,48.79
2022-08-19T17:18:00.940Z,48.75
2022-08-19T17:20:32.855Z,48.94
2022-08-19T17:23:00.662Z,49.21
2022-08-19T17:25:42.241Z,49.39
2022-08-19T17:28:14.203Z,49.67
2022-08-19T17:31:01.987Z,50.02
2022-08-19T17:33:35.440Z,50.20
2022-08-19T17:36:23.878Z,50.54
2022-08-19T17:38:54.731Z,50.85
2022-08-19T17:41:33.509Z,51.13
2022-08-19T17:44:18.585Z,51.41
2022-08-19T17:47:27.978Z,51.54
2022-08-19T17:50:16.530Z,51.61
2022-08-19T17:53:15.870Z,51.56
2022-08-19T17:55:52.560Z,51.71
2022-08-19T17:58:45.071Z,51.99
2022-08-19T18:01:32.729Z,52.12
2022-08-19T18:04:19.265Z,52.57
2022-08-19T18:06:53.369Z,52.95
2022-08-19T18:09:23.921Z,53.27
2022-08-19T18:12:15.155Z,53.48
2022-08-19T18:14:51.807Z,53.60
2022-08-19T18:17:40.015Z,53.89
2022-08-19T18:20:28.177Z,54.02
2022-08-19T18:23:44.814Z,54.16
2022-08-19T18:26:12.976Z,54.57
2022-08-19T18:28:49.509Z,54.74
2022-08-19T18:31:38.624Z,55.09
2022-08-19T18:34:26.555Z,55.37
2022-08-19T18:37:05.334Z,55.54
2022-08-19T18:40:11.435Z,55.77
2022-08-19T18:43:27.162Z,56.15
2022-08-19T18:46:24.032Z,56.26
2022-08-19T18:49:24.425Z,56.17
2022-08-19T18:52:28.539Z,56.13
2022-08-19T18:55:11.222Z,56.47
2022-08-19T18:57:59.319Z,57.13
2022-08-19T19:00:27.385Z,57.60
2022-08-19T19:03:17.823Z,58.17
2022-08-19T19:06:06.775Z,58.50
2022-08-19T19:08:40.263Z,58.98
2022-08-19T19:11:29.693Z,59.37
2022-08-19T19:13:57.799Z,59.73
2022-08-19T19:16:37.270Z,60.15
2022-08-19T19:19:06.645Z,60.33
2022-08-19T19:22:22.343Z,60.69
2022-08-19T19:25:11.259Z,61.03
2022-08-19T19:28:02.727Z,61.25
2022-08-19T19:30:38.590Z,61.43
2022-08-19T19:33:07.355Z,61.57
2022-08-19T19:35:38.061Z,61.89
2022-08-19T19:38:13.639Z,62.04
2022-08-19T19:41:04.999Z,62.21
2022-08-19T19:44:29.305Z,62.42
2022-08-19T19:47:20.757Z,62.60
2022-08-19T19:50:29.678Z,62.79
2022-08-19T19:53:19.811Z,62.83
2022-08-19T19:56:13.671Z,63.16
2022-08-19T19:59:26.669Z,63.40
2022-08-19T20:02:29.774Z,63.55
2022-08-19T20:05:12.856Z,63.76
2022-08-19T20:08:49.804Z,63.85
2022-08-19T20:11:49.101Z,63.98
2022-08-19T20:14:52.002Z,64.24
2022-08-19T20:17:50.569Z,64.42
2022-08-19T20:21:24.286Z,64.45
2022-08-19T20:24:19.341Z,64.80
2022-08-19T20:27:11.606Z,64.93
2022-08-19T20:30:05.121Z,65.08
2022-08-19T20:33:14.976Z,65.21
2022-08-19T20:35:59.803Z,65.42
2022-08-19T20:38:41.881Z,65.85
2022-08-19T20:41:50.203Z,65.96
2022-08-19T20:44:30.250Z,66.14
2022-08-19T20:47:21.672Z,66.57
2022-08-19T20:49:57.832Z,66.97
2022-08-19T20:52:38.653Z,67.18
2022-08-19T20:55:27.832Z,67.50
2022-08-19T20:57:58.781Z,67.68
2022-08-19T21:00:29.949Z,67.99
2022-08-19T21:03:43.395Z,68.43
2022-08-19T21:06:34.542Z,68.52
2022-08-19T21:09:33.856Z,68.83
2022-08-19T21:12:43.904Z,69.29
2022-08-19T21:15:34.803Z,69.41
2022-08-19T21:19:01.164Z,69.61
2022-08-19T21:21:32.952Z,69.85
2022-08-19T21:24:22.018Z,69.99
2022-08-19T21:27:21.037Z,70.30
2022-08-19T21:30:02.063Z,70.34
2022-08-19T21:33:10.761Z,70.51
2022-08-19T21:36:07.945Z,70.71
2022-08-19T21:39:05.624Z,70.82
2022-08-19T21:41:44.151Z,70.78
2022-08-19T21:44:52.175Z,70.84
2022-08-19T21:47:48.031Z,71.12
2022-08-19T21:51:01.781Z,71.13
2022-08-19T21:53:44.824Z,71.04
2022-08-19T21:56:53.551Z,71.08
2022-08-19T21:59:51.112Z,71.25
2022-08-19T22:03:00.747Z,71.17
2022-08-19T22:05:32.821Z,71.32
2022-08-19T22:08:17.393Z,71.35
2022-08-19T22:11:01.475Z,71.22
2022-08-19T22:13:51.134Z,71.36
2022-08-19T22:16:32.501Z,71.43
2022-08-19T22:19:26.131Z,71.53
2022-08-19T22:22:46.615Z,71.47
2022-08-19T22:25:42.920Z,71.35
2022-08-19T22:28:27.531Z,71.35
2022-08-19T22:31:37.183Z,71.34
2022-08-19T22:34:34.529Z,71.19
2022-08-19T22:37:43.302Z,71.04
2022-08-19T22:40:39.052Z,71.19
2022-08-19T22:43:50.069Z,70.91
2022-08-19T22:46:58.445Z,70.94
2022-08-19T22:50:13.873Z,70.83
2022-08-19T22:53:02.645Z,70.95
2022-08-19T22:56:15.290Z,70.89
2022-08-19T22:59:17.803Z,71.02
2022-08-19T23:02:27.910Z,71.10
2022-08-19T23:05:37.119Z,71.17
2022-08-19T23:08:48.541Z,71.50
2022-08-19T23:11:56.875Z,71.78
2022-08-19T23:15:06.659Z,71.72
2022-08-19T23:18:06.376Z,72.03
2022-08-19T23:21:16.130Z,72.17
2022-08-19T23:24:07.609Z,72.40
2022-08-19T23:27:34.982Z,72.61
2022-08-19T23:30:44.247Z,72.83
2022-08-19T23:33:53.107Z,73.05
2022-08-19T23:36:41.950Z,73.30
2022-08-19T23:39:50.238Z,73.43
2022-08-19T23:42:58.605Z,73.46
2022-08-19T23:46:10.629Z,73.63
2022-08-19T23:48:41.633Z,73.61
2022-08-19T23:51:38.583Z,73.54
2022-08-19T23:54:43.452Z,73.71
2022-08-19T23:57:40.917Z,73.84
